ΕΜΥ, Εθνική Μετεωρολογική Υπηρεσία - Δελτία Καιρού, Προγνώσεις

ΑΕΡΟΝΑΥΤΙΛΙΑ

GREEK AIRPORTS CODES

LGIR 212150Z 17008KT 9999 FEW020 10/08 Q1023 NOSIG =

EUROPEAN AIRPORTS CODES

LFPO 212200Z 21013KT 4000 -DZ BKN006 11/10 Q1006 NOSIG=